Terminal Aerodrome Forecast
Issued by NWS Birmingham, AL

Home | Current Version | Previous Version | Text Only | Print | Product List | Glossary On
Versions: 1 2 3 4 5 6 7 8 9 10 11 12 13 14 15 16 17 18 19
077
FTUS44 KBMX 241346 AAA
TAFBHM
TAF AMD
KBHM 241346Z 2414/2512 24007KT P6SM SCT015 BKN050
      TEMPO 2414/2416 BKN015
     FM241700 25010G18KT P6SM VCSH BKN035
     FM242000 27013G20KT P6SM BKN050
     FM250000 28008KT P6SM OVC050=

USA.gov is the U.S. government's official web portal to all federal, state and local government web resources and services.